createdAt,value
2023-03-05T00:01:39.941Z,100607.09
2023-03-05T00:04:11.647Z,100597.31
2023-03-05T00:06:39.609Z,100605.91
2023-03-05T00:09:07.582Z,100604.63
2023-03-05T00:11:35.520Z,100605.88
2023-03-05T00:14:04.704Z,100592.28
2023-03-05T00:16:33.148Z,100596.66
2023-03-05T00:19:01.760Z,100593.94
2023-03-05T00:21:30.892Z,100591.47
2023-03-05T00:24:03.943Z,100587.91
2023-03-05T00:26:34.947Z,100592.72
2023-03-05T00:29:03.819Z,100590.44
2023-03-05T00:31:34.298Z,100595.03
2023-03-05T00:34:05.447Z,100583.69
2023-03-05T00:36:33.583Z,100588.28
2023-03-05T00:39:01.707Z,100588.41
2023-03-05T00:41:29.717Z,100585.88
2023-03-05T00:43:57.841Z,100585.13
2023-03-05T00:46:27.664Z,100586.53
2023-03-05T00:48:57.267Z,100585.66
2023-03-05T00:51:25.161Z,100581.53
2023-03-05T00:53:53.092Z,100585.25
2023-03-05T00:56:21.324Z,100578.97
2023-03-05T00:58:49.367Z,100580.84
2023-03-05T01:01:17.535Z,100582.00
2023-03-05T01:03:45.655Z,100576.75
2023-03-05T01:06:16.575Z,100581.94
2023-03-05T01:08:45.401Z,100578.22
2023-03-05T01:11:13.366Z,100585.47
2023-03-05T01:13:41.471Z,100581.44
2023-03-05T01:16:09.704Z,100587.13
2023-03-05T01:18:38.547Z,100576.25
2023-03-05T01:21:07.339Z,100581.69
2023-03-05T01:23:37.589Z,100571.97
2023-03-05T01:26:06.737Z,100566.78
2023-03-05T01:28:34.869Z,100561.03
2023-03-05T01:31:02.801Z,100568.03
2023-03-05T01:33:30.718Z,100570.50
2023-03-05T01:35:58.680Z,100556.16
2023-03-05T01:38:26.556Z,100559.97
2023-03-05T01:40:54.472Z,100555.84
2023-03-05T01:43:26.712Z,100556.53
2023-03-05T01:46:13.642Z,100558.41
2023-03-05T01:48:47.704Z,100543.50
2023-03-05T01:51:16.012Z,100544.41
2023-03-05T01:53:44.211Z,100543.03
2023-03-05T01:56:12.472Z,100545.22
2023-03-05T01:58:40.698Z,100544.66
2023-03-05T02:01:08.880Z,100539.38
2023-03-05T02:03:37.689Z,100540.56
2023-03-05T02:06:05.876Z,100541.09
2023-03-05T02:08:33.880Z,100538.41
2023-03-05T02:11:02.291Z,100544.81
2023-03-05T02:13:35.800Z,100549.13
2023-03-05T02:16:04.196Z,100540.38
2023-03-05T02:18:32.148Z,100539.06
2023-03-05T02:21:04.689Z,100544.09
2023-03-05T02:23:36.638Z,100539.72
2023-03-05T02:26:06.834Z,100538.97
2023-03-05T02:28:44.732Z,100531.91
2023-03-05T02:31:19.133Z,100522.69
2023-03-05T02:33:48.002Z,100525.59
2023-03-05T02:36:17.720Z,100526.50
2023-03-05T02:38:47.711Z,100526.75
2023-03-05T02:41:16.390Z,100521.41
2023-03-05T02:43:44.763Z,100519.00
2023-03-05T02:46:13.137Z,100527.47
2023-03-05T02:48:41.142Z,100518.19
2023-03-05T02:51:11.866Z,100514.91
2023-03-05T02:53:39.743Z,100512.41
2023-03-05T02:56:07.729Z,100514.00
2023-03-05T02:58:36.791Z,100497.97
2023-03-05T03:01:04.952Z,100503.47
2023-03-05T03:03:33.204Z,100504.88
2023-03-05T03:06:01.320Z,100511.69
2023-03-05T03:08:29.242Z,100507.09
2023-03-05T03:10:57.047Z,100507.00
2023-03-05T03:13:25.563Z,100500.09
2023-03-05T03:16:03.112Z,100509.91
2023-03-05T03:18:31.042Z,100498.88
2023-03-05T03:20:59.368Z,100508.97
2023-03-05T03:23:27.955Z,100508.06
2023-03-05T03:25:55.862Z,100504.19
2023-03-05T03:28:24.228Z,100506.81
2023-03-05T03:30:52.093Z,100503.03
2023-03-05T03:33:20.184Z,100497.03
2023-03-05T03:35:48.139Z,100498.94
2023-03-05T03:38:16.033Z,100492.69
2023-03-05T03:40:43.931Z,100491.06
2023-03-05T03:43:11.930Z,100489.56
2023-03-05T03:45:43.961Z,100490.22
2023-03-05T03:48:12.000Z,100488.25
2023-03-05T03:50:44.213Z,100490.31
2023-03-05T03:53:15.239Z,100498.03
2023-03-05T03:55:43.513Z,100488.25
2023-03-05T03:58:11.494Z,100485.31
2023-03-05T04:00:40.791Z,100496.31
2023-03-05T04:03:09.165Z,100485.13
2023-03-05T04:05:37.161Z,100488.81
2023-03-05T04:08:05.957Z,100484.78
2023-03-05T04:10:33.840Z,100495.72
2023-03-05T04:13:01.663Z,100487.59
2023-03-05T04:15:31.071Z,100488.56
2023-03-05T04:17:59.193Z,100477.31
2023-03-05T04:20:27.327Z,100479.09
2023-03-05T04:22:55.161Z,100479.50
2023-03-05T04:25:23.215Z,100477.34
2023-03-05T04:27:52.224Z,100474.44
2023-03-05T04:30:20.168Z,100471.16
2023-03-05T04:32:48.036Z,100471.06
2023-03-05T04:35:15.956Z,100471.41
2023-03-05T04:37:43.867Z,100471.16
2023-03-05T04:40:12.281Z,100469.28
2023-03-05T04:42:40.157Z,100470.50
2023-03-05T04:45:08.881Z,100470.16
2023-03-05T04:47:36.883Z,100464.41
2023-03-05T04:50:06.372Z,100471.03
2023-03-05T04:52:34.462Z,100472.91
2023-03-05T04:55:02.450Z,100474.81
2023-03-05T04:57:30.424Z,100472.97
2023-03-05T04:59:58.617Z,100466.81
2023-03-05T05:02:26.634Z,100468.84
2023-03-05T05:04:54.613Z,100470.38
2023-03-05T05:07:22.518Z,100473.06
2023-03-05T05:09:50.360Z,100470.00
2023-03-05T05:12:18.354Z,100470.28
2023-03-05T05:14:46.311Z,100472.03
2023-03-05T05:17:14.294Z,100466.59
2023-03-05T05:19:42.248Z,100464.63
2023-03-05T05:22:10.160Z,100467.44
2023-03-05T05:24:37.980Z,100467.94
2023-03-05T05:27:05.981Z,100472.63
2023-03-05T05:29:33.901Z,100471.34
2023-03-05T05:32:01.856Z,100471.91
2023-03-05T05:34:29.839Z,100473.56
2023-03-05T05:36:57.800Z,100473.66
2023-03-05T05:39:25.635Z,100474.94
2023-03-05T05:41:54.008Z,100470.88
2023-03-05T05:44:21.850Z,100463.81
2023-03-05T05:46:49.892Z,100475.63
2023-03-05T05:49:17.927Z,100471.25
2023-03-05T05:51:46.132Z,100466.25
2023-03-05T05:54:15.259Z,100475.34
2023-03-05T05:56:43.251Z,100478.28
2023-03-05T05:59:11.291Z,100481.22
2023-03-05T06:01:39.529Z,100489.06
2023-03-05T06:04:07.491Z,100478.28
2023-03-05T06:06:35.536Z,100486.25
2023-03-05T06:09:04.360Z,100487.91
2023-03-05T06:11:32.450Z,100489.13
2023-03-05T06:14:02.739Z,100487.03
2023-03-05T06:16:31.318Z,100500.22
2023-03-05T06:19:00.371Z,100487.09
2023-03-05T06:21:28.239Z,100503.38
2023-03-05T06:23:58.855Z,100498.22
2023-03-05T06:26:27.010Z,100501.56
2023-03-05T06:28:55.107Z,100510.94
2023-03-05T06:31:28.130Z,100506.97
2023-03-05T06:34:03.054Z,100508.25
2023-03-05T06:36:31.643Z,100511.41
2023-03-05T06:39:00.504Z,100518.94
2023-03-05T06:41:31.000Z,100519.81
2023-03-05T06:44:03.493Z,100514.63
2023-03-05T06:46:40.635Z,100524.50
2023-03-05T06:49:09.758Z,100521.56
2023-03-05T06:51:40.393Z,100518.25
2023-03-05T06:54:11.788Z,100522.38
2023-03-05T06:56:42.050Z,100516.66
2023-03-05T06:59:12.175Z,100518.13
2023-03-05T07:01:40.332Z,100518.78
2023-03-05T07:04:08.529Z,100515.56
2023-03-05T07:06:38.735Z,100523.41
2023-03-05T07:09:08.128Z,100511.59
2023-03-05T07:11:36.413Z,100520.13
2023-03-05T07:14:04.669Z,100516.44
2023-03-05T07:16:34.946Z,100513.34
2023-03-05T07:19:05.694Z,100516.59
2023-03-05T07:21:36.903Z,100517.34
2023-03-05T07:24:06.758Z,100519.13
2023-03-05T07:26:35.088Z,100520.50
2023-03-05T07:29:03.655Z,100512.97
2023-03-05T07:31:32.350Z,100515.16
2023-03-05T07:34:02.654Z,100519.44
2023-03-05T07:36:31.249Z,100518.25
2023-03-05T07:38:59.107Z,100514.03
2023-03-05T07:41:27.080Z,100517.34
2023-03-05T07:43:55.440Z,100513.03
2023-03-05T07:46:29.533Z,100517.09
2023-03-05T07:48:57.568Z,100517.69
2023-03-05T07:51:26.805Z,100520.38
2023-03-05T07:53:57.605Z,100526.69
2023-03-05T07:56:31.928Z,100513.00
2023-03-05T07:59:00.368Z,100516.81
2023-03-05T08:01:29.974Z,100521.72
2023-03-05T08:03:57.986Z,100521.13
2023-03-05T08:06:25.980Z,100515.16
2023-03-05T08:08:53.813Z,100509.25
2023-03-05T08:11:21.796Z,100518.50
2023-03-05T08:13:51.322Z,100514.88
2023-03-05T08:16:21.580Z,100515.09
2023-03-05T08:18:49.508Z,100506.03
2023-03-05T08:21:23.405Z,100506.31
2023-03-05T08:23:51.321Z,100502.03
2023-03-05T08:26:22.115Z,100490.69
2023-03-05T08:28:50.936Z,100496.22
2023-03-05T08:31:21.833Z,100495.91
2023-03-05T08:33:52.156Z,100493.50
2023-03-05T08:36:20.559Z,100494.84
2023-03-05T08:38:48.819Z,100493.84
2023-03-05T08:41:18.818Z,100487.13
2023-03-05T08:43:47.069Z,100488.75
2023-03-05T08:46:16.222Z,100484.19
2023-03-05T08:48:44.763Z,100493.53
2023-03-05T08:51:19.007Z,100489.28
2023-03-05T08:53:48.222Z,100491.66
2023-03-05T08:56:16.134Z,100497.25
2023-03-05T08:58:44.869Z,100500.50
2023-03-05T09:01:13.695Z,100500.44
2023-03-05T09:03:42.180Z,100496.09
2023-03-05T09:06:12.640Z,100494.22
2023-03-05T09:08:40.717Z,100506.09
2023-03-05T09:11:11.820Z,100500.09
2023-03-05T09:13:39.965Z,100496.41
2023-03-05T09:16:11.241Z,100499.38
2023-03-05T09:18:40.758Z,100497.25
2023-03-05T09:21:14.093Z,100494.94
2023-03-05T09:23:42.732Z,100506.06
2023-03-05T09:26:12.550Z,100490.94
2023-03-05T09:28:41.020Z,100492.63
2023-03-05T09:31:10.531Z,100492.00
2023-03-05T09:33:39.360Z,100485.16
2023-03-05T09:36:27.519Z,100476.09
2023-03-05T09:38:55.892Z,100492.69
2023-03-05T09:42:04.184Z,100483.19
2023-03-05T09:44:59.325Z,100478.19
2023-03-05T09:47:32.865Z,100479.13
2023-03-05T09:50:18.969Z,100463.22
2023-03-05T09:52:59.767Z,100472.41
2023-03-05T09:55:44.831Z,100470.38
2023-03-05T09:58:30.550Z,100471.59
2023-03-05T10:01:02.770Z,100470.81
2023-03-05T10:03:42.609Z,100466.81
2023-03-05T10:06:23.752Z,100458.56
2023-03-05T10:09:09.945Z,100460.50
2023-03-05T10:11:59.262Z,100456.13
2023-03-05T10:14:31.160Z,100453.56
2023-03-05T10:17:20.897Z,100456.72
2023-03-05T10:20:13.203Z,100451.47
2023-03-05T10:23:39.453Z,100447.97
2023-03-05T10:26:36.756Z,100448.75
2023-03-05T10:29:13.543Z,100440.72
2023-03-05T10:32:04.588Z,100440.59
2023-03-05T10:35:01.838Z,100439.28
2023-03-05T10:37:48.892Z,100436.13
2023-03-05T10:40:30.014Z,100436.75
2023-03-05T10:43:15.683Z,100430.63
2023-03-05T10:45:46.700Z,100421.72
2023-03-05T10:48:43.506Z,100424.25
2023-03-05T10:51:23.325Z,100417.91
2023-03-05T10:53:56.599Z,100412.50
2023-03-05T10:56:27.768Z,100405.16
2023-03-05T10:58:55.854Z,100412.28
2023-03-05T11:01:28.272Z,100412.00
2023-03-05T11:04:01.616Z,100406.56
2023-03-05T11:06:46.537Z,100407.47
2023-03-05T11:09:29.456Z,100401.72
2023-03-05T11:12:19.600Z,100401.78
2023-03-05T11:15:05.121Z,100402.72
2023-03-05T11:17:38.326Z,100390.25
2023-03-05T11:20:27.765Z,100388.41
2023-03-05T11:23:05.882Z,100385.06
2023-03-05T11:25:35.441Z,100384.31
2023-03-05T11:28:04.290Z,100378.75
2023-03-05T11:30:35.222Z,100370.94
2023-03-05T11:33:22.689Z,100377.69
2023-03-05T11:35:52.680Z,100366.38
2023-03-05T11:38:24.678Z,100363.63
2023-03-05T11:40:55.671Z,100356.34
2023-03-05T11:43:25.886Z,100347.84
2023-03-05T11:46:01.713Z,100346.25
2023-03-05T11:48:36.147Z,100346.91
2023-03-05T11:51:13.899Z,100338.63
2023-03-05T11:53:44.755Z,100342.69
2023-03-05T11:56:21.079Z,100330.34
2023-03-05T11:59:03.108Z,100332.78
2023-03-05T12:01:40.683Z,100322.28
2023-03-05T12:04:08.923Z,100320.13
2023-03-05T12:06:49.255Z,100308.09
2023-03-05T12:09:23.178Z,100306.78
2023-03-05T12:11:56.709Z,100299.00
2023-03-05T12:14:28.112Z,100282.09
2023-03-05T12:17:04.543Z,100295.59
2023-03-05T12:19:41.424Z,100287.94
2023-03-05T12:22:27.423Z,100279.66
2023-03-05T12:25:34.884Z,100274.72
2023-03-05T12:28:03.326Z,100270.59
2023-03-05T12:30:37.189Z,100269.63
2023-03-05T12:33:26.765Z,100268.53
2023-03-05T12:35:55.037Z,100253.53
2023-03-05T12:38:31.885Z,100252.69
2023-03-05T12:41:25.861Z,100248.44
2023-03-05T12:44:07.056Z,100245.38
2023-03-05T12:46:54.822Z,100243.38
2023-03-05T12:49:27.196Z,100239.53
2023-03-05T12:52:01.351Z,100230.34
2023-03-05T12:54:31.959Z,100233.72
2023-03-05T12:57:06.845Z,100229.19
2023-03-05T12:59:45.790Z,100220.00
2023-03-05T13:02:32.542Z,100219.53
2023-03-05T13:05:14.860Z,100229.72
2023-03-05T13:07:42.884Z,100208.94
2023-03-05T13:10:29.297Z,100213.25
2023-03-05T13:12:58.757Z,100202.88
2023-03-05T13:15:27.258Z,100202.97
2023-03-05T13:17:58.144Z,100203.03
2023-03-05T13:20:28.894Z,100201.81
2023-03-05T13:23:20.799Z,100192.41
2023-03-05T13:26:01.440Z,100185.28
2023-03-05T13:28:32.553Z,100188.56
2023-03-05T13:31:05.114Z,100181.31
2023-03-05T13:33:37.846Z,100176.69
2023-03-05T13:36:06.851Z,100178.44
2023-03-05T13:38:39.255Z,100178.34
2023-03-05T13:41:16.227Z,100190.00
2023-03-05T13:43:49.635Z,100185.94
2023-03-05T13:46:47.889Z,100177.38
2023-03-05T13:49:23.156Z,100171.59
2023-03-05T13:51:56.645Z,100174.22
2023-03-05T13:54:27.198Z,100173.41
2023-03-05T13:57:00.777Z,100168.63
2023-03-05T13:59:31.415Z,100162.66
2023-03-05T14:02:01.632Z,100166.66
2023-03-05T14:04:42.837Z,100155.63
2023-03-05T14:07:39.971Z,100160.91
2023-03-05T14:10:40.470Z,100158.19
2023-03-05T14:13:19.362Z,100150.25
2023-03-05T14:16:07.053Z,100153.75
2023-03-05T14:18:36.129Z,100145.88
2023-03-05T14:21:10.158Z,100138.53
2023-03-05T14:23:39.741Z,100130.13
2023-03-05T14:26:39.758Z,100134.63
2023-03-05T14:29:07.634Z,100133.06
2023-03-05T14:31:56.296Z,100132.41
2023-03-05T14:34:35.366Z,100118.41
2023-03-05T14:37:07.333Z,100117.09
2023-03-05T14:39:53.221Z,100113.72
2023-03-05T14:42:38.434Z,100117.47
2023-03-05T14:45:24.637Z,100112.28
2023-03-05T14:47:54.512Z,100103.50
2023-03-05T14:50:32.764Z,100100.91
2023-03-05T14:53:17.515Z,100100.09
2023-03-05T14:55:49.446Z,100094.59
2023-03-05T14:58:22.008Z,100092.63
2023-03-05T15:00:51.343Z,100099.75
2023-03-05T15:03:22.049Z,100095.03
2023-03-05T15:05:56.505Z,100091.38
2023-03-05T15:08:27.747Z,100085.03
2023-03-05T15:10:56.063Z,100083.88
2023-03-05T15:13:24.546Z,100072.41
2023-03-05T15:15:53.765Z,100079.75
2023-03-05T15:18:23.930Z,100082.16
2023-03-05T15:20:57.128Z,100076.16
2023-03-05T15:23:25.284Z,100080.72
2023-03-05T15:25:53.111Z,100072.13
2023-03-05T15:28:21.171Z,100069.53
2023-03-05T15:30:49.082Z,100063.41
2023-03-05T15:33:18.296Z,100063.88
2023-03-05T15:35:46.552Z,100069.22
2023-03-05T15:38:16.374Z,100067.94
2023-03-05T15:40:45.102Z,100061.13
2023-03-05T15:43:13.528Z,100058.34
2023-03-05T15:45:41.557Z,100062.56
2023-03-05T15:48:09.688Z,100055.28
2023-03-05T15:50:42.210Z,100062.41
2023-03-05T15:53:13.612Z,100056.56
2023-03-05T15:55:45.125Z,100062.41
2023-03-05T15:58:17.529Z,100057.03
2023-03-05T16:00:47.696Z,100059.81
2023-03-05T16:03:16.348Z,100054.59
2023-03-05T16:05:44.435Z,100041.97
2023-03-05T16:08:12.718Z,100044.22
2023-03-05T16:10:41.186Z,100038.25
2023-03-05T16:13:13.647Z,100048.13
2023-03-05T16:15:43.140Z,100033.69
2023-03-05T16:18:15.541Z,100035.81
2023-03-05T16:20:43.757Z,100024.06
2023-03-05T16:23:11.730Z,100024.88
2023-03-05T16:25:39.799Z,100035.09
2023-03-05T16:28:07.874Z,100029.78
2023-03-05T16:30:35.829Z,100031.22
2023-03-05T16:33:03.942Z,100030.22
2023-03-05T16:35:31.941Z,100027.47
2023-03-05T16:37:59.863Z,100027.47
2023-03-05T16:40:44.137Z,100018.22
2023-03-05T16:43:15.573Z,100025.00
2023-03-05T16:45:43.404Z,100017.88
2023-03-05T16:48:11.181Z,100017.53
2023-03-05T16:50:39.077Z,100020.28
2023-03-05T16:53:07.685Z,100014.44
2023-03-05T16:55:37.020Z,100004.50
2023-03-05T16:58:05.354Z,100012.59
2023-03-05T17:00:33.382Z,100017.13
2023-03-05T17:03:01.453Z,100016.97
2023-03-05T17:05:30.017Z,100023.91
2023-03-05T17:07:57.983Z,100027.75
2023-03-05T17:10:26.013Z,100025.19
2023-03-05T17:12:54.676Z,100018.69
2023-03-05T17:15:23.659Z,100021.44
2023-03-05T17:17:51.822Z,100031.06
2023-03-05T17:20:20.304Z,100033.38
2023-03-05T17:22:48.204Z,100033.81
2023-03-05T17:25:16.162Z,100042.56
2023-03-05T17:27:44.091Z,100039.22
2023-03-05T17:30:13.134Z,100050.28
2023-03-05T17:32:44.139Z,100050.13
2023-03-05T17:35:19.390Z,100045.88
2023-03-05T17:37:47.434Z,100053.94
2023-03-05T17:40:16.434Z,100059.16
2023-03-05T17:42:44.349Z,100054.72
2023-03-05T17:45:12.696Z,100062.22
2023-03-05T17:47:40.836Z,100057.06
2023-03-05T17:50:10.806Z,100061.16
2023-03-05T17:52:40.634Z,100059.44
2023-03-05T17:55:11.100Z,100066.66
2023-03-05T17:57:44.178Z,100063.19
2023-03-05T18:00:24.783Z,100069.03
2023-03-05T18:02:53.920Z,100068.78
2023-03-05T18:05:23.684Z,100063.09
2023-03-05T18:07:52.309Z,100068.00
2023-03-05T18:10:21.185Z,100069.03
2023-03-05T18:12:49.648Z,100071.03
2023-03-05T18:15:20.105Z,100073.28
2023-03-05T18:17:48.097Z,100063.22
2023-03-05T18:20:32.812Z,100072.78
2023-03-05T18:23:02.095Z,100082.00
2023-03-05T18:25:33.759Z,100080.72
2023-03-05T18:28:04.251Z,100081.88
2023-03-05T18:30:32.788Z,100079.00
2023-03-05T18:33:01.109Z,100086.56
2023-03-05T18:35:29.791Z,100078.88
2023-03-05T18:37:57.881Z,100077.84
2023-03-05T18:40:29.286Z,100083.47
2023-03-05T18:43:00.207Z,100079.69
2023-03-05T18:45:29.869Z,100086.06
2023-03-05T18:47:57.985Z,100080.38
2023-03-05T18:50:28.482Z,100075.47
2023-03-05T18:52:56.765Z,100080.38
2023-03-05T18:55:27.600Z,100080.66
2023-03-05T18:57:56.361Z,100089.09
2023-03-05T19:00:27.738Z,100077.91
2023-03-05T19:02:57.133Z,100083.31
2023-03-05T19:05:26.830Z,100077.50
2023-03-05T19:07:55.627Z,100071.19
2023-03-05T19:10:27.264Z,100079.47
2023-03-05T19:13:39.877Z,100079.47
2023-03-05T19:16:08.938Z,100089.69
2023-03-05T19:19:26.065Z,100095.53
2023-03-05T19:21:59.721Z,100092.06
2023-03-05T19:24:30.183Z,100090.72
2023-03-05T19:27:01.247Z,100092.34
2023-03-05T19:29:33.135Z,100083.63
2023-03-05T19:32:01.292Z,100086.22
2023-03-05T19:34:29.156Z,100085.09
2023-03-05T19:36:57.357Z,100085.03
2023-03-05T19:39:25.316Z,100084.13
2023-03-05T19:41:53.785Z,100087.19
2023-03-05T19:44:23.543Z,100088.50
2023-03-05T19:46:52.276Z,100092.19
2023-03-05T19:49:20.526Z,100089.25
2023-03-05T19:51:49.719Z,100089.38
2023-03-05T19:54:19.858Z,100096.50
2023-03-05T19:56:49.161Z,100100.34
2023-03-05T19:59:21.283Z,100100.97
2023-03-05T20:01:50.167Z,100123.19
2023-03-05T20:04:24.452Z,100121.72
2023-03-05T20:06:52.768Z,100116.03
2023-03-05T20:09:20.737Z,100119.09
2023-03-05T20:11:50.074Z,100116.41
2023-03-05T20:14:18.546Z,100113.38
2023-03-05T20:16:46.494Z,100112.94
2023-03-05T20:19:17.781Z,100113.69
2023-03-05T20:21:45.738Z,100116.16
2023-03-05T20:24:20.110Z,100114.63
2023-03-05T20:26:48.337Z,100117.75
2023-03-05T20:29:18.169Z,100109.78
2023-03-05T20:31:47.786Z,100105.31
2023-03-05T20:34:21.133Z,100108.88
2023-03-05T20:36:52.261Z,100112.84
2023-03-05T20:39:20.190Z,100114.78
2023-03-05T20:41:48.685Z,100120.88
2023-03-05T20:44:17.480Z,100115.41
2023-03-05T20:47:39.673Z,100118.56
2023-03-05T20:50:11.129Z,100114.59
2023-03-05T20:52:39.513Z,100121.47
2023-03-05T20:55:08.956Z,100119.16
2023-03-05T20:57:36.904Z,100117.44
2023-03-05T21:00:05.915Z,100122.25
2023-03-05T21:02:33.842Z,100117.69
2023-03-05T21:05:01.643Z,100118.22
2023-03-05T21:07:29.830Z,100121.59
2023-03-05T21:09:57.589Z,100112.56
2023-03-05T21:12:25.435Z,100114.94
2023-03-05T21:14:53.363Z,100106.44
2023-03-05T21:17:21.370Z,100115.16
2023-03-05T21:19:49.444Z,100108.44
2023-03-05T21:22:17.333Z,100108.97
2023-03-05T21:25:24.936Z,100109.69
2023-03-05T21:28:16.639Z,100109.41
2023-03-05T21:30:51.913Z,100106.44
2023-03-05T21:33:23.545Z,100103.16
2023-03-05T21:35:52.902Z,100100.81
2023-03-05T21:38:27.062Z,100092.09
2023-03-05T21:40:54.939Z,100097.94
2023-03-05T21:43:24.248Z,100094.72
2023-03-05T21:45:54.349Z,100088.44
2023-03-05T21:48:23.480Z,100088.91
2023-03-05T21:50:52.557Z,100090.16
2023-03-05T21:53:21.069Z,100084.00
2023-03-05T21:56:25.469Z,100089.84
2023-03-05T21:58:54.205Z,100085.72
2023-03-05T22:01:22.408Z,100075.41
2023-03-05T22:03:50.809Z,100077.69
2023-03-05T22:06:19.862Z,100074.16
2023-03-05T22:08:48.600Z,100075.72
2023-03-05T22:11:18.058Z,100077.94
2023-03-05T22:13:45.912Z,100077.41
2023-03-05T22:16:24.526Z,100079.88
2023-03-05T22:18:52.957Z,100081.91
2023-03-05T22:21:23.481Z,100074.34
2023-03-05T22:23:51.367Z,100076.91
2023-03-05T22:26:19.235Z,100065.13
2023-03-05T22:28:47.110Z,100066.59
2023-03-05T22:31:27.525Z,100062.66
2023-03-05T22:33:55.364Z,100059.69
2023-03-05T22:36:24.550Z,100057.47
2023-03-05T22:38:52.813Z,100049.81
2023-03-05T22:41:21.847Z,100055.66
2023-03-05T22:43:50.653Z,100049.75
2023-03-05T22:46:24.524Z,100046.41
2023-03-05T22:48:52.709Z,100056.00
2023-03-05T22:51:20.801Z,100050.38
2023-03-05T22:53:48.794Z,100041.47
2023-03-05T22:56:19.039Z,100051.41
2023-03-05T22:58:47.260Z,100053.13
2023-03-05T23:01:18.692Z,100053.13
2023-03-05T23:04:44.801Z,100050.69
2023-03-05T23:07:34.784Z,100051.56
2023-03-05T23:10:07.265Z,100042.88
2023-03-05T23:12:37.801Z,100051.63
2023-03-05T23:15:09.036Z,100050.28
2023-03-05T23:17:36.995Z,100042.97
2023-03-05T23:20:08.020Z,100050.09
2023-03-05T23:22:40.388Z,100043.59
2023-03-05T23:25:08.687Z,100039.78
2023-03-05T23:27:36.678Z,100046.38
2023-03-05T23:30:24.461Z,100036.53
2023-03-05T23:32:58.832Z,100039.81
2023-03-05T23:35:51.412Z,100037.13
2023-03-05T23:38:19.352Z,100046.44
2023-03-05T23:40:50.026Z,100043.22
2023-03-05T23:43:18.953Z,100040.50
2023-03-05T23:45:49.447Z,100040.78
2023-03-05T23:48:18.109Z,100039.97
2023-03-05T23:50:48.680Z,100038.34
2023-03-05T23:53:22.269Z,100042.41
2023-03-05T23:55:50.580Z,100037.81
2023-03-05T23:58:20.726Z,100036.69
